NCAR-RAP Real-Time Weather Data

Output produced by METARs form (24 April 2018  16:16 UTC)
found at http://weather.rap.ucar.edu/surface/
 
 
ROAH 241600Z 33010KT 9999 FEW008 BKN012 21/19 Q1010 RMK 1ST008 6CU012 A2984
 
RODN 241556Z AUTO 29004KT 10SM BKN014 21/19 A2984 RMK AO2 RAE22DZB22E23 CIG 012 RWY05 SLP110 P0001 T02070192 $
 
ROIG 241100Z 01009KT 9999 -SHRA FEW007 SCT011 BKN090 22/22 Q1010
 
ROMY 241132Z 01009KT 8000 -SHRA SCT008 BKN015 FEW020CB BKN050 22/21 Q1010 RMK 3ST008 5CU015 1CB020 7SC050 A2983 CB 20KM SE MOV E